DW4212 La Cabrera ES current weather conditions

sailwx.info

Wind from 319

Air temperature 25.0° C
Dewpoint 7.1° C

Last reported at 2014-Jul-24 21:49 UTC.
Time now 2014-Jul-24 23:04 UTC

Location: N 40°53' W 003°35'.
View on Google Maps.

See reports from other nearby stations

  
Tides and Currents Weather Stations Pressure Air Temp Water Temp Dewpoint Dewpoint Depression Visibility Wind Speed Wind Dir Waves Ship Positions
date/time (UTC)wind fromknots sea level pressurealtimeterstation pressurevisibilityair tempwater tempwave heightnotes
2014-Jul-24 21:49 319 25.0
2014-Jul-24 21:29 342 25.0
2014-Jul-24 21:19 009 25.0
2014-Jul-24 21:09 013 25.6
2014-Jul-24 20:59 015 25.6
2014-Jul-24 20:49 015 25.6
2014-Jul-24 20:39 329 25.6
2014-Jul-24 20:29 318 0 gusting 4 25.6
2014-Jul-24 20:19 290 1 gusting 5 26.1
2014-Jul-24 20:09 285 26.1
2014-Jul-24 19:59 249 26.7
2014-Jul-24 19:49 248 26.7
2014-Jul-24 19:39 249 0 gusting 3 27.2
2014-Jul-24 19:29 247 1 gusting 4 27.8
2014-Jul-24 19:19 250 28.3
2014-Jul-24 19:09 250 2 gusting 6 28.3
2014-Jul-24 18:59 237 0 gusting 5 28.9
2014-Jul-24 18:49 254 0 gusting 6 29.4
2014-Jul-24 18:39 257 1 gusting 7 29.4
2014-Jul-24 18:29 251 2 gusting 8 30.0
2014-Jul-24 18:19 196 3 gusting 9 30.6
2014-Jul-24 18:09 263 3 gusting 8 30.6
2014-Jul-24 17:59 246 2 gusting 9 31.1
2014-Jul-24 17:49 244 5 gusting 13 31.1
2014-Jul-24 17:39 246 3 gusting 8 31.1
2014-Jul-24 17:29 244 3 gusting 11 31.7
2014-Jul-24 17:19 291 1 gusting 6 31.7
2014-Jul-24 17:09 309 2 gusting 8 32.2
2014-Jul-24 16:59 249 1 gusting 7 32.2
2014-Jul-24 16:49 200 1 gusting 10 32.2
2014-Jul-24 16:39 196 0 gusting 6 32.2
2014-Jul-24 16:29 209 0 gusting 8 32.2
2014-Jul-24 16:19 165 0 gusting 6 33.3
2014-Jul-24 16:09 225 1 gusting 7 32.8
2014-Jul-24 15:59 257 1 gusting 6 32.2
2014-Jul-24 15:49 185 0 gusting 6 32.2
2014-Jul-24 15:39 224 0 gusting 6 32.2
2014-Jul-24 15:29 193 1 gusting 5 31.7
2014-Jul-24 15:19 190 0 gusting 6 31.7
2014-Jul-24 15:09 134 2 gusting 10 31.7
2014-Jul-24 14:59 141 31.1
2014-Jul-24 14:49 183 0 gusting 6 31.7
2014-Jul-24 14:39 170 4 gusting 6 31.7
2014-Jul-24 14:29 186 1 gusting 6 31.7
2014-Jul-24 14:19 171 0 gusting 7 32.2
2014-Jul-24 14:09 192 0 gusting 6 32.2
2014-Jul-24 13:59 187 3 gusting 7 31.7
2014-Jul-24 13:49 196 4 gusting 8 32.2
2014-Jul-24 13:39 235 32.8
2014-Jul-24 13:29 249 1 gusting 6 32.2
2014-Jul-24 13:19 169 0 gusting 7 31.1
2014-Jul-24 13:09 218 1 gusting 9 31.7
2014-Jul-24 12:59 196 0 gusting 6 30.6
2014-Jul-24 12:49 244 31.1
2014-Jul-24 12:39 184 0 gusting 6 32.8
2014-Jul-24 12:29 205 33.3
2014-Jul-24 12:19 197 1 gusting 7 32.2
2014-Jul-24 12:09 177 0 gusting 7 32.2
2014-Jul-24 11:59 232 0 gusting 4 31.1
2014-Jul-24 11:49 167 2 gusting 9 31.7
2014-Jul-24 11:39 192 0 gusting 6 31.7
2014-Jul-24 11:29 107 1 gusting 7 31.7
2014-Jul-24 11:20 172 0 gusting 6 31.7
2014-Jul-24 11:09 186 1 gusting 6 31.1
2014-Jul-24 10:59 171 1 gusting 6 31.1
2014-Jul-24 10:49 165 0 gusting 6 30.6
2014-Jul-24 10:39 188 0 gusting 6 30.6
2014-Jul-24 10:29 186 3 gusting 6 30.6
2014-Jul-24 10:19 188 0 gusting 6 30.0
2014-Jul-24 10:09 165 0 gusting 5 30.0
2014-Jul-24 09:59 180 0 gusting 4 29.4
2014-Jul-24 09:49 184 1 gusting 6 29.4
2014-Jul-24 09:39 156 29.4
2014-Jul-24 09:29 200 28.9
2014-Jul-24 09:19 185 0 gusting 4 28.9
2014-Jul-24 09:09 200 0 gusting 3 28.3
2014-Jul-24 08:59 202 0 gusting 4 27.8
2014-Jul-24 08:49 123 27.2
2014-Jul-24 08:39 123 27.2
2014-Jul-24 08:29 123 26.7
2014-Jul-24 08:19 348 26.1
2014-Jul-24 08:09 347 25.6
2014-Jul-24 07:59 333 2 gusting 4 25.6
2014-Jul-24 07:49 355 1 gusting 4 25.0
2014-Jul-24 07:39 053 24.4
2014-Jul-24 07:29 355 1 gusting 4 23.3
2014-Jul-24 07:19 074 0 gusting 3 22.2
2014-Jul-24 07:09 355 22.2
2014-Jul-24 06:59 055 21.1
2014-Jul-24 06:49 062 20.6
2014-Jul-24 06:39 355 20.6
2014-Jul-24 06:29 350 2 gusting 4 20.0
2014-Jul-24 06:19 360 2 gusting 4 19.4
2014-Jul-24 06:09 005 2 gusting 3 18.3
2014-Jul-24 05:59 056 18.3
2014-Jul-24 05:49 056 18.3
2014-Jul-24 04:49 056 17.8
2014-Jul-24 04:39 056 17.8
2014-Jul-24 04:29 355 17.8
2014-Jul-24 04:19 355 17.8
2014-Jul-24 04:09 355 19.4
2014-Jul-24 03:59 355 1 gusting 6 21.1
2014-Jul-24 03:49 344 1 gusting 6 21.1
2014-Jul-24 03:39 355 1 gusting 5 21.1
2014-Jul-24 03:29 005 3 gusting 6 21.1
2014-Jul-24 03:19 360 3 gusting 6 20.6
2014-Jul-24 03:09 348 2 gusting 4 20.0
2014-Jul-24 02:59 355 20.0
2014-Jul-24 02:49 355 3 gusting 6 20.0
2014-Jul-24 02:39 348 4 gusting 6 21.1
2014-Jul-24 02:29 360 1 gusting 4 21.1
2014-Jul-24 02:19 360 2 gusting 5 20.6
2014-Jul-24 02:09 355 2 gusting 6 20.6
2014-Jul-24 01:59 355 0 gusting 6 20.6
2014-Jul-24 01:49 355 0 gusting 4 20.6
2014-Jul-24 01:39 025 20.6
2014-Jul-24 01:29 005 1 gusting 6 20.6
2014-Jul-24 01:19 136 21.7
2014-Jul-24 01:09 136 21.7
2014-Jul-24 00:59 348 22.2
2014-Jul-24 00:49 319 21.7
2014-Jul-24 00:39 005 1 gusting 5 21.7
2014-Jul-24 00:29 360 0 gusting 2 22.2
2014-Jul-24 00:19 148 22.2
2014-Jul-24 00:09 148 22.8
2014-Jul-23 23:59 148 22.8
2014-Jul-23 23:49 148 22.8
2014-Jul-23 23:39 148 22.8
2014-Jul-23 23:29 148 22.8
2014-Jul-23 23:19 148 22.8
2014-Jul-23 23:09 061 22.2
2014-Jul-23 22:59 061 0 gusting 1 22.2
2014-Jul-23 22:49 355 24.4
2014-Jul-23 22:39 355 24.4
2014-Jul-23 22:29 355 0 gusting 2 25.0
2014-Jul-23 22:19 355 0 gusting 4 25.0
2014-Jul-23 22:09 355 1 gusting 3 25.0
2014-Jul-23 21:59 355 1 gusting 4 24.4
2014-Jul-23 21:49 355 0 gusting 3 24.4
2014-Jul-23 21:39 355 25.0
2014-Jul-23 21:29 355 0 gusting 2 25.6
2014-Jul-23 21:19 355 25.6
2014-Jul-23 21:09 355 0 gusting 5 25.6
2014-Jul-23 20:59 355 0 gusting 3 25.6
2014-Jul-23 20:49 355 25.6
2014-Jul-23 20:39 355 26.1
2014-Jul-23 20:29 355 0 gusting 3 26.1
2014-Jul-23 20:19 355 0 26.7
2014-Jul-23 20:09 355 0 gusting 3 27.2
2014-Jul-23 19:59 316 27.2
2014-Jul-23 19:49 338 27.8
2014-Jul-23 19:39 360 0 gusting 3 28.3
2014-Jul-23 19:29 331 28.3
2014-Jul-23 19:19 346 28.9
2014-Jul-23 19:09 355 0 gusting 5 29.4
2014-Jul-23 18:59 005 1 gusting 6 29.4
2014-Jul-23 18:49 329 30.0
2014-Jul-23 18:39 349 0 gusting 6 30.0
2014-Jul-23 18:29 342 1 gusting 6 30.6
2014-Jul-23 18:19 005 3 gusting 6 30.6
2014-Jul-23 18:09 340 1 gusting 6 31.1
2014-Jul-23 17:59 330 2 gusting 6 31.1
2014-Jul-23 17:49 355 1 gusting 9 31.1
2014-Jul-23 17:40 093 2 gusting 9 31.1
2014-Jul-23 17:29 060 0 gusting 6 31.1
2014-Jul-23 17:19 060 0 gusting 6 31.1
2014-Jul-23 17:09 074 31.7
2014-Jul-23 16:59 009 1 gusting 6 31.7
2014-Jul-23 16:49 078 0 gusting 2 31.1
2014-Jul-23 16:39 090 0 gusting 6 30.6
2014-Jul-23 16:29 073 1 gusting 5 30.6
2014-Jul-23 16:19 124 31.1
2014-Jul-23 16:09 076 0 gusting 4 31.7
2014-Jul-23 15:59 063 2 gusting 6 31.1
2014-Jul-23 15:49 055 0 gusting 3 31.7
2014-Jul-23 15:39 065 0 gusting 6 31.1
2014-Jul-23 15:29 098 0 gusting 5 31.1
2014-Jul-23 15:19 355 31.1
2014-Jul-23 15:09 360 1 gusting 6 31.1
2014-Jul-23 14:59 055 0 gusting 3 31.1
2014-Jul-23 14:49 360 31.7
2014-Jul-23 14:39 349 31.1
2014-Jul-23 14:29 355 31.7
2014-Jul-23 14:19 355 31.7
2014-Jul-23 14:09 235 32.8
2014-Jul-23 13:59 235 2 gusting 6 33.3
2014-Jul-23 13:49 303 33.9
2014-Jul-23 13:29 313 1 gusting 6 35.0
2014-Jul-23 13:19 240 0 gusting 4 34.4
2014-Jul-23 13:09 243 2 gusting 5 34.4
2014-Jul-23 12:59 253 2 gusting 8 33.9
2014-Jul-23 12:49 194 33.3
2014-Jul-23 12:39 252 2 gusting 6 33.3
2014-Jul-23 12:29 198 0 gusting 6 32.2
2014-Jul-23 12:19 191 1 gusting 5 32.2
2014-Jul-23 12:09 174 1 gusting 6 32.2
2014-Jul-23 11:59 183 0 gusting 6 32.8
2014-Jul-23 11:49 188 0 gusting 3 32.8
2014-Jul-23 11:39 237 1 gusting 6 33.3
2014-Jul-23 11:29 200 1 gusting 6 32.2
2014-Jul-23 11:19 221 4 gusting 7 32.2
2014-Jul-23 11:09 208 32.2
2014-Jul-23 10:59 265 31.7
2014-Jul-23 10:49 184 0 gusting 6 31.1
2014-Jul-23 10:39 077 0 gusting 5 31.1
2014-Jul-23 10:29 256 0 gusting 3 31.1
2014-Jul-23 10:19 120 31.1
2014-Jul-23 10:09 223 0 gusting 3 30.6
2014-Jul-23 09:59 155 30.0
2014-Jul-23 09:49 116 29.4
2014-Jul-23 09:39 184 0 gusting 5 29.4
2014-Jul-23 09:29 146 30.0
2014-Jul-23 09:19 184 0 gusting 2 28.9
2014-Jul-23 09:09 360 28.9
2014-Jul-23 08:49 095 27.8
2014-Jul-23 08:39 095 27.2
2014-Jul-23 08:29 073 0 gusting 2 27.2
2014-Jul-23 08:19 072 26.7
2014-Jul-23 08:09 109 26.7
2014-Jul-23 07:59 081 26.7
2014-Jul-23 07:49 081 26.1
2014-Jul-23 07:39 081 25.6
2014-Jul-23 07:29 073 24.4
2014-Jul-23 07:19 073 0 gusting 2 23.9
2014-Jul-23 07:10 107 22.8
2014-Jul-23 06:59 107 21.7
2014-Jul-23 06:49 107 20.6
2014-Jul-23 06:39 355 23.9
2014-Jul-23 06:29 342 23.9
2014-Jul-23 06:19 360 1 gusting 5 23.3
2014-Jul-23 06:09 355 2 gusting 6 22.8
2014-Jul-23 05:59 355 2 gusting 6 22.2
2014-Jul-23 05:49 355 2 gusting 5 21.7
2014-Jul-23 05:39 355 2 gusting 6 21.1
2014-Jul-23 05:29 329 2 gusting 5 20.6
2014-Jul-23 05:19 005 2 gusting 6 20.0
2014-Jul-23 05:09 005 2 gusting 5 19.4
2014-Jul-23 04:59 005 3 gusting 5 20.0
2014-Jul-23 04:49 355 1 gusting 4 20.0
2014-Jul-23 04:39 355 2 gusting 4 20.0
2014-Jul-23 04:29 360 0 gusting 2 20.0
2014-Jul-23 04:19 360 20.0
2014-Jul-23 04:09 360 1 gusting 2 20.0
2014-Jul-23 03:59 360 1 gusting 4 20.0
2014-Jul-23 03:49 355 0 gusting 4 20.6
2014-Jul-23 03:39 355 20.0
2014-Jul-23 03:29 355 1 gusting 4 20.0
2014-Jul-23 03:19 355 1 gusting 4 20.0
2014-Jul-23 03:09 355 1 gusting 4 20.0
2014-Jul-23 02:59 355 1 gusting 4 20.0
2014-Jul-23 02:49 355 1 gusting 5 20.0
2014-Jul-23 02:39 355 2 gusting 6 20.0
2014-Jul-23 02:29 360 1 gusting 3 20.0
2014-Jul-23 02:19 355 0 gusting 4 20.6
2014-Jul-23 02:09 355 1 gusting 3 20.6
2014-Jul-23 01:59 355 2 gusting 3 20.6
2014-Jul-23 01:49 355 2 gusting 4 20.6
2014-Jul-23 01:39 360 0 gusting 3 20.6
2014-Jul-23 01:29 355 1 gusting 4 20.6
2014-Jul-23 01:19 355 0 gusting 3 21.1
2014-Jul-23 01:09 355 1 gusting 6 21.1
2014-Jul-23 00:59 360 0 gusting 2 21.1
2014-Jul-23 00:49 360 0 gusting 3 21.1
2014-Jul-23 00:39 360 1 gusting 4 21.1
2014-Jul-23 00:29 360 0 gusting 5 21.1
2014-Jul-23 00:19 360 1 gusting 4 21.1
2014-Jul-23 00:09 355 0 gusting 3 21.7
2014-Jul-22 23:59 355 1 gusting 4 21.7
2014-Jul-22 23:49 351 2 gusting 5 21.7
2014-Jul-22 23:39 355 1 gusting 4 21.7
2014-Jul-22 23:29 355 1 gusting 6 21.7
2014-Jul-22 23:19 360 0 gusting 3 21.7
2014-Jul-22 23:09 355 0 gusting 4 21.7